Time;durP1;ratioP1;P1;durP2;ratioP2;P2;SDS_P1;SDS_P2;PMS_P1;PMS_P2;Temp;Humidity;BMP_temperature;BMP_pressure;BME280_temperature;BME280_humidity;BME280_pressure;Samples;Min_cycle;Max_cycle;Signal;HPM_P1;HPM_P2
2023/12/20 00:00:12;;;;;;;4.30;2.22;;;;;;;;;;4927765;29;20059;-86
2023/12/20 00:02:46;;;;;;;6.88;2.47;;;;;;;;;;4934796;29;20060;-90
2023/12/20 00:05:17;;;;;;;7.13;2.17;;;;;;;;;;4935325;29;20048;-87
2023/12/20 00:07:47;;;;;;;6.70;2.00;;;;;;;;;;4918535;29;20056;-87
2023/12/20 00:10:20;;;;;;;5.28;2.17;;;;;;;;;;4902600;29;20055;-87
2023/12/20 00:12:50;;;;;;;4.93;2.20;;;;;;;;;;4917386;29;20165;-86
2023/12/20 00:15:20;;;;;;;5.53;2.40;;;;;;;;;;4917185;29;20052;-86
2023/12/20 00:17:51;;;;;;;6.90;2.40;;;;;;;;;;4921433;29;20047;-86
2023/12/20 00:20:22;;;;;;;6.93;2.78;;;;;;;;;;4915490;29;20056;-86
2023/12/20 00:22:52;;;;;;;5.45;2.92;;;;;;;;;;4909872;29;20072;-89
2023/12/20 00:29:42;;;;;;;8.25;2.67;;;;;;;;;;5209117;23;20018;-85
2023/12/20 00:40:03;;;;;;;5.72;2.63;;;;;;;;;;4821235;29;20042;-87
2023/12/20 00:42:38;;;;;;;6.50;3.10;;;;;;;;;;4914834;29;20055;-86
2023/12/20 00:50:43;;;;;;;8.18;2.80;;;;;;;;;;4942326;28;21595;-89
2023/12/20 00:57:40;;;;;;;7.18;2.97;;;;;;;;;;4916319;29;20044;-88
2023/12/20 01:00:13;;;;;;;6.70;2.65;;;;;;;;;;4919114;29;20059;-87
2023/12/20 01:02:44;;;;;;;5.15;2.55;;;;;;;;;;4905149;29;20063;-91
2023/12/20 01:05:14;;;;;;;5.78;3.17;;;;;;;;;;4922508;29;20052;-90
2023/12/20 01:07:45;;;;;;;7.55;2.97;;;;;;;;;;4924206;29;20056;-88
2023/12/20 01:10:19;;;;;;;9.65;3.13;;;;;;;;;;4921399;29;20070;-86
2023/12/20 01:12:49;;;;;;;5.00;2.53;;;;;;;;;;4917562;29;20051;-87
2023/12/20 01:15:19;;;;;;;7.72;2.75;;;;;;;;;;4916899;29;20055;-87
2023/12/20 01:17:51;;;;;;;6.97;3.10;;;;;;;;;;4916705;29;20059;-87
2023/12/20 01:20:23;;;;;;;7.88;3.20;;;;;;;;;;4899648;29;20044;-86
2023/12/20 01:22:53;;;;;;;8.10;3.05;;;;;;;;;;4899539;29;20052;-87
2023/12/20 01:25:25;;;;;;;5.65;2.70;;;;;;;;;;4917595;29;20048;-87
2023/12/20 01:27:56;;;;;;;7.05;3.30;;;;;;;;;;4899604;29;20048;-86
2023/12/20 01:30:26;;;;;;;4.80;2.30;;;;;;;;;;4899877;29;20499;-87
2023/12/20 01:32:57;;;;;;;9.57;3.17;;;;;;;;;;4900823;29;20059;-87
2023/12/20 01:35:27;;;;;;;4.60;2.58;;;;;;;;;;4917531;29;20387;-86
2023/12/20 01:37:58;;;;;;;5.47;2.28;;;;;;;;;;4884326;29;20056;-86
2023/12/20 01:40:30;;;;;;;4.03;2.33;;;;;;;;;;4917031;29;20048;-86
2023/12/20 01:43:02;;;;;;;5.75;2.50;;;;;;;;;;4898884;29;20067;-86
2023/12/20 01:45:33;;;;;;;7.53;2.75;;;;;;;;;;4884580;29;20044;-86
2023/12/20 01:48:05;;;;;;;7.30;2.33;;;;;;;;;;4899293;29;20495;-89
2023/12/20 01:50:38;;;;;;;6.60;2.50;;;;;;;;;;4900233;29;20096;-89
2023/12/20 01:53:10;;;;;;;3.60;1.95;;;;;;;;;;4899910;29;20063;-89
2023/12/20 01:55:41;;;;;;;5.57;2.20;;;;;;;;;;4917168;29;20055;-89
2023/12/20 01:58:14;;;;;;;7.72;2.17;;;;;;;;;;4884602;29;20086;-89
2023/12/20 02:00:45;;;;;;;7.20;2.75;;;;;;;;;;4900361;29;20052;-89
2023/12/20 02:03:21;;;;;;;8.45;3.05;;;;;;;;;;4899936;29;20059;-89
2023/12/20 02:05:55;;;;;;;8.50;3.08;;;;;;;;;;4900018;29;20056;-88
2023/12/20 02:08:26;;;;;;;4.55;2.80;;;;;;;;;;4899453;29;20419;-88
2023/12/20 02:10:57;;;;;;;10.10;3.08;;;;;;;;;;4900444;29;20376;-89
2023/12/20 02:13:31;;;;;;;6.25;2.78;;;;;;;;;;4900180;29;20056;-89
2023/12/20 02:16:03;;;;;;;10.25;2.67;;;;;;;;;;4899379;29;20499;-90
2023/12/20 02:18:34;;;;;;;5.35;2.80;;;;;;;;;;4900102;29;20048;-89
2023/12/20 02:21:06;;;;;;;10.02;2.95;;;;;;;;;;4899828;29;20056;-88
2023/12/20 02:23:37;;;;;;;6.22;2.55;;;;;;;;;;4917038;29;20051;-89
2023/12/20 02:26:08;;;;;;;8.85;2.70;;;;;;;;;;4900699;29;20052;-89
2023/12/20 02:28:38;;;;;;;7.90;3.28;;;;;;;;;;4916201;29;20059;-88
2023/12/20 02:31:09;;;;;;;5.28;2.40;;;;;;;;;;4914826;29;20052;-88
2023/12/20 02:33:41;;;;;;;7.60;2.90;;;;;;;;;;4898624;29;20055;-87
2023/12/20 02:36:11;;;;;;;;;;;;;;;;;;4901064;29;20067;-85
2023/12/20 02:38:41;;;;;;;7.85;2.60;;;;;;;;;;4900699;29;19934;-87
2023/12/20 02:41:11;;;;;;;8.05;2.67;;;;;;;;;;4885503;29;20052;-86
2023/12/20 02:43:41;;;;;;;5.68;2.58;;;;;;;;;;4901553;29;20086;-88
2023/12/20 02:46:14;;;;;;;5.18;2.42;;;;;;;;;;4919136;29;20055;-87
2023/12/20 02:48:44;;;;;;;6.00;2.30;;;;;;;;;;4903160;29;20052;-88
2023/12/20 02:51:15;;;;;;;5.97;2.53;;;;;;;;;;4887642;29;20052;-87
2023/12/20 02:53:46;;;;;;;7.95;2.90;;;;;;;;;;4919980;29;20059;-88
2023/12/20 02:56:16;;;;;;;7.03;2.90;;;;;;;;;;4902602;29;20380;-88
2023/12/20 02:58:48;;;;;;;9.00;3.10;;;;;;;;;;4902021;29;20075;-89
2023/12/20 03:01:19;;;;;;;5.10;2.72;;;;;;;;;;4903002;29;20056;-90
2023/12/20 03:03:49;;;;;;;8.60;2.90;;;;;;;;;;4901930;29;20052;-90
2023/12/20 03:06:20;;;;;;;9.65;3.25;;;;;;;;;;4887256;29;20385;-88
2023/12/20 03:08:51;;;;;;;8.18;2.80;;;;;;;;;;4901515;29;20063;-89
2023/12/20 03:11:21;;;;;;;6.50;2.70;;;;;;;;;;4903174;29;20058;-89
2023/12/20 03:13:52;;;;;;;10.38;2.90;;;;;;;;;;4902590;29;20064;-88
2023/12/20 03:16:23;;;;;;;6.65;2.75;;;;;;;;;;4899909;29;20064;-89
2023/12/20 03:18:53;;;;;;;7.53;2.55;;;;;;;;;;4902178;29;20048;-89
2023/12/20 03:21:23;;;;;;;7.47;2.72;;;;;;;;;;4887118;29;20055;-88
2023/12/20 03:23:56;;;;;;;3.88;2.45;;;;;;;;;;4901562;29;20043;-87
2023/12/20 03:26:28;;;;;;;5.93;2.78;;;;;;;;;;4916305;29;20420;-89
2023/12/20 03:28:59;;;;;;;10.32;2.58;;;;;;;;;;4936541;29;20067;-89
2023/12/20 03:31:29;;;;;;;6.05;2.63;;;;;;;;;;4935757;29;20056;-88
2023/12/20 03:33:59;;;;;;;7.38;2.72;;;;;;;;;;4920109;29;20062;-89
2023/12/20 03:36:30;;;;;;;6.18;2.67;;;;;;;;;;4935880;29;20056;-88
2023/12/20 03:39:01;;;;;;;5.43;2.38;;;;;;;;;;4935987;29;20063;-88
2023/12/20 03:41:31;;;;;;;6.68;2.25;;;;;;;;;;4920650;29;20067;-89
2023/12/20 03:44:00;;;;;;;9.45;3.00;;;;;;;;;;4920781;29;20410;-89
2023/12/20 03:46:32;;;;;;;7.10;2.58;;;;;;;;;;4950930;28;20051;-89
2023/12/20 03:49:06;;;;;;;5.72;2.20;;;;;;;;;;4920965;29;20074;-89
2023/12/20 03:51:39;;;;;;;6.32;2.53;;;;;;;;;;4936270;29;20046;-88
2023/12/20 03:54:10;;;;;;;5.50;2.53;;;;;;;;;;4935495;29;20052;-89
2023/12/20 03:56:41;;;;;;;4.80;2.25;;;;;;;;;;4936516;29;20059;-86
2023/12/20 03:59:11;;;;;;;5.03;2.17;;;;;;;;;;4936165;29;20055;-87
2023/12/20 04:01:46;;;;;;;9.32;2.78;;;;;;;;;;4937606;29;20051;-89
2023/12/20 04:04:18;;;;;;;7.38;2.28;;;;;;;;;;4934662;29;20491;-88
2023/12/20 04:06:51;;;;;;;6.25;2.40;;;;;;;;;;4935361;29;20047;-88
2023/12/20 04:09:22;;;;;;;5.47;1.92;;;;;;;;;;4920981;29;20483;-88
2023/12/20 04:11:53;;;;;;;4.35;2.20;;;;;;;;;;4934401;29;20518;-88
2023/12/20 04:14:24;;;;;;;7.45;2.35;;;;;;;;;;4934028;29;20043;-89
2023/12/20 04:16:55;;;;;;;6.97;2.10;;;;;;;;;;4917740;29;20060;-89
2023/12/20 04:19:26;;;;;;;3.55;2.20;;;;;;;;;;4948947;29;20059;-89
2023/12/20 04:21:57;;;;;;;7.43;2.55;;;;;;;;;;4934942;29;20048;-88
2023/12/20 04:24:30;;;;;;;5.63;3.10;;;;;;;;;;4933137;29;20063;-89
2023/12/20 04:27:04;;;;;;;9.32;2.60;;;;;;;;;;4933992;29;20240;-88
2023/12/20 04:29:35;;;;;;;5.07;2.75;;;;;;;;;;4933515;29;20082;-88
2023/12/20 04:32:07;;;;;;;4.70;2.80;;;;;;;;;;4937312;29;20084;-90
2023/12/20 04:34:37;;;;;;;7.70;3.03;;;;;;;;;;4937435;29;20043;-89
2023/12/20 04:37:07;;;;;;;16.88;3.83;;;;;;;;;;4938605;29;20066;-88
2023/12/20 04:39:38;;;;;;;7.72;3.10;;;;;;;;;;4938949;29;20062;-88
2023/12/20 04:42:08;;;;;;;6.68;2.90;;;;;;;;;;4939277;29;20050;-88
2023/12/20 04:44:43;;;;;;;9.48;2.95;;;;;;;;;;4956235;29;20055;-88
2023/12/20 04:47:14;;;;;;;9.77;3.35;;;;;;;;;;4955598;29;20157;-89
2023/12/20 04:49:45;;;;;;;6.53;2.88;;;;;;;;;;4938703;29;20059;-88
2023/12/20 04:52:15;;;;;;;8.80;2.80;;;;;;;;;;4939694;29;20047;-90
2023/12/20 04:54:46;;;;;;;8.32;3.25;;;;;;;;;;4923575;29;20055;-89
2023/12/20 04:57:18;;;;;;;7.55;2.60;;;;;;;;;;4938999;29;20066;-89
2023/12/20 04:59:47;;;;;;;7.75;3.00;;;;;;;;;;4923044;29;20055;-89
2023/12/20 05:02:20;;;;;;;7.78;2.60;;;;;;;;;;4938110;29;20058;-88
2023/12/20 05:04:50;;;;;;;10.02;2.90;;;;;;;;;;4938651;29;20055;-89
2023/12/20 05:07:24;;;;;;;9.88;2.60;;;;;;;;;;4938125;29;20058;-89
2023/12/20 05:09:56;;;;;;;8.63;2.97;;;;;;;;;;4922974;29;20502;-89
2023/12/20 05:12:26;;;;;;;5.80;2.78;;;;;;;;;;4937961;29;20051;-89
2023/12/20 05:14:59;;;;;;;7.25;2.72;;;;;;;;;;4939277;29;20051;-88
2023/12/20 05:17:29;;;;;;;8.52;2.72;;;;;;;;;;4922320;29;20051;-88
2023/12/20 05:19:59;;;;;;;6.18;2.60;;;;;;;;;;4939263;29;20047;-88
2023/12/20 05:22:31;;;;;;;9.52;3.60;;;;;;;;;;4938076;29;20062;-90
2023/12/20 05:25:02;;;;;;;7.00;3.00;;;;;;;;;;4937301;29;20486;-88
2023/12/20 05:27:32;;;;;;;9.85;3.47;;;;;;;;;;4937422;29;20502;-89
2023/12/20 05:30:04;;;;;;;12.52;3.08;;;;;;;;;;4938239;29;20058;-88
2023/12/20 05:32:34;;;;;;;8.57;3.33;;;;;;;;;;4938951;29;20048;-88
2023/12/20 05:35:05;;;;;;;11.27;3.15;;;;;;;;;;4938016;29;20494;-86
2023/12/20 05:37:37;;;;;;;5.28;3.13;;;;;;;;;;4937795;29;20490;-87
2023/12/20 05:40:10;;;;;;;10.90;3.25;;;;;;;;;;4954979;29;20047;-89
2023/12/20 05:42:41;;;;;;;8.73;2.70;;;;;;;;;;4937724;29;20067;-87
2023/12/20 05:45:12;;;;;;;7.22;3.47;;;;;;;;;;4938368;29;20486;-87
2023/12/20 05:47:42;;;;;;;6.40;2.95;;;;;;;;;;4937450;29;20051;-88
2023/12/20 05:50:14;;;;;;;8.45;2.95;;;;;;;;;;4922727;29;20070;-87
2023/12/20 05:52:44;;;;;;;8.20;3.60;;;;;;;;;;4936945;29;20482;-88
2023/12/20 05:55:15;;;;;;;8.85;3.53;;;;;;;;;;4938260;29;20051;-88
2023/12/20 05:57:46;;;;;;;9.40;3.70;;;;;;;;;;4937441;29;20059;-88
2023/12/20 06:00:17;;;;;;;7.97;3.50;;;;;;;;;;4937718;29;20058;-87
2023/12/20 06:02:48;;;;;;;8.85;3.95;;;;;;;;;;4937415;29;20066;-86
2023/12/20 06:05:19;;;;;;;10.38;4.05;;;;;;;;;;4955206;29;20059;-86
2023/12/20 06:07:57;;;;;;;8.98;3.22;;;;;;;;;;4938140;29;20062;-86
2023/12/20 06:10:27;;;;;;;7.15;3.13;;;;;;;;;;4924487;29;20525;-86
2023/12/20 06:13:00;;;;;;;8.18;3.03;;;;;;;;;;4941540;29;20062;-86
2023/12/20 06:15:31;;;;;;;7.22;3.65;;;;;;;;;;4942016;29;20043;-87
2023/12/20 06:18:03;;;;;;;7.22;3.13;;;;;;;;;;4940808;29;20058;-86
2023/12/20 06:20:34;;;;;;;9.23;3.30;;;;;;;;;;4940991;29;20402;-87
2023/12/20 06:23:05;;;;;;;8.48;3.22;;;;;;;;;;4941027;29;20070;-87
2023/12/20 06:25:35;;;;;;;7.47;3.10;;;;;;;;;;4942147;29;20039;-87
2023/12/20 06:28:10;;;;;;;13.50;3.53;;;;;;;;;;4926686;29;20051;-87
2023/12/20 06:30:41;;;;;;;9.98;3.50;;;;;;;;;;4958838;29;20067;-87
2023/12/20 06:33:13;;;;;;;10.07;3.50;;;;;;;;;;4957037;29;20054;-87
2023/12/20 06:35:44;;;;;;;11.73;3.25;;;;;;;;;;4926040;29;20494;-87
2023/12/20 06:38:19;;;;;;;7.50;3.80;;;;;;;;;;4941698;29;20059;-87
2023/12/20 06:40:49;;;;;;;10.90;3.60;;;;;;;;;;4941836;29;20150;-88
2023/12/20 06:43:20;;;;;;;11.35;3.88;;;;;;;;;;4941770;29;20051;-88
2023/12/20 06:46:12;;;;;;;9.30;3.45;;;;;;;;;;4944518;29;20047;-88
2023/12/20 06:48:43;;;;;;;5.78;3.40;;;;;;;;;;4925601;29;20051;-87
2023/12/20 06:51:16;;;;;;;7.55;3.50;;;;;;;;;;4925925;29;20064;-87
2023/12/20 06:53:47;;;;;;;11.10;3.47;;;;;;;;;;4925181;29;20051;-87
2023/12/20 06:56:18;;;;;;;12.63;4.05;;;;;;;;;;4940114;29;20413;-86
2023/12/20 06:58:48;;;;;;;9.50;3.67;;;;;;;;;;4941131;29;20058;-87
2023/12/20 07:01:19;;;;;;;11.20;3.85;;;;;;;;;;4925239;29;20070;-88
2023/12/20 07:03:53;;;;;;;7.97;3.38;;;;;;;;;;4925220;29;20418;-87
2023/12/20 07:06:25;;;;;;;8.32;3.90;;;;;;;;;;4925264;29;20055;-87
2023/12/20 07:08:56;;;;;;;9.70;4.03;;;;;;;;;;4940851;29;20383;-87
2023/12/20 07:11:26;;;;;;;9.77;3.53;;;;;;;;;;4957516;29;20047;-87
2023/12/20 07:13:56;;;;;;;7.20;3.58;;;;;;;;;;4924934;29;20430;-87
2023/12/20 07:16:27;;;;;;;9.40;3.20;;;;;;;;;;4940145;29;20055;-88
2023/12/20 07:18:57;;;;;;;9.00;3.42;;;;;;;;;;4924769;29;20058;-88
2023/12/20 07:21:28;;;;;;;8.70;3.20;;;;;;;;;;4939810;29;20052;-88
2023/12/20 07:23:59;;;;;;;9.23;3.33;;;;;;;;;;4924569;29;20052;-88
2023/12/20 07:26:33;;;;;;;12.02;3.30;;;;;;;;;;4925601;29;20062;-88
2023/12/20 07:29:04;;;;;;;12.98;3.78;;;;;;;;;;4939783;29;20054;-88
2023/12/20 07:31:34;;;;;;;10.43;3.65;;;;;;;;;;4955936;28;20051;-88
2023/12/20 07:34:06;;;;;;;7.93;3.38;;;;;;;;;;4939934;29;20062;-88
2023/12/20 07:37:14;;;;;;;8.48;3.45;;;;;;;;;;4928089;29;20055;-88
2023/12/20 07:39:44;;;;;;;11.23;3.60;;;;;;;;;;4924649;29;20219;-88
2023/12/20 07:42:14;;;;;;;11.65;3.67;;;;;;;;;;4924543;29;20051;-88
2023/12/20 07:44:45;;;;;;;9.27;3.33;;;;;;;;;;4939131;29;20063;-88
2023/12/20 07:47:21;;;;;;;7.07;3.30;;;;;;;;;;4924491;29;20051;-86
2023/12/20 07:49:52;;;;;;;9.27;3.63;;;;;;;;;;4924215;29;20502;-87
2023/12/20 07:52:23;;;;;;;9.13;3.17;;;;;;;;;;4923635;29;20059;-88
2023/12/20 07:54:55;;;;;;;6.95;3.47;;;;;;;;;;4940070;29;20127;-89
2023/12/20 07:57:30;;;;;;;10.02;3.25;;;;;;;;;;4956520;29;20043;-89
2023/12/20 08:00:03;;;;;;;11.05;3.55;;;;;;;;;;4954823;29;20062;-89
2023/12/20 08:02:35;;;;;;;10.95;3.45;;;;;;;;;;4919601;29;20044;-86
2023/12/20 08:05:07;;;;;;;16.35;3.63;;;;;;;;;;4904848;29;20052;-86
2023/12/20 08:07:44;;;;;;;9.43;3.28;;;;;;;;;;4919897;29;20415;-86
2023/12/20 08:10:15;;;;;;;8.65;3.42;;;;;;;;;;4937180;29;20039;-85
2023/12/20 08:12:45;;;;;;;9.93;3.67;;;;;;;;;;4924259;29;20051;-86
2023/12/20 08:15:16;;;;;;;12.88;4.50;;;;;;;;;;4917826;29;20353;-84
2023/12/20 08:17:47;;;;;;;9.23;3.50;;;;;;;;;;4932216;29;20051;-88
2023/12/20 08:20:18;;;;;;;7.32;3.42;;;;;;;;;;4927114;29;20055;-86
2023/12/20 08:22:58;;;;;;;9.85;3.90;;;;;;;;;;4936827;29;20069;-89
2023/12/20 08:25:28;;;;;;;9.98;3.75;;;;;;;;;;4920141;29;20059;-87
2023/12/20 08:27:58;;;;;;;8.50;3.03;;;;;;;;;;4909989;29;20048;-86
2023/12/20 08:30:29;;;;;;;9.98;3.80;;;;;;;;;;4911471;29;20059;-86
2023/12/20 08:33:03;;;;;;;9.23;4.25;;;;;;;;;;4934271;29;20562;-86
2023/12/20 08:35:34;;;;;;;8.70;3.85;;;;;;;;;;4955799;29;20044;-85
2023/12/20 08:38:04;;;;;;;7.78;4.10;;;;;;;;;;4937406;29;20047;-85
2023/12/20 08:40:34;;;;;;;11.60;3.72;;;;;;;;;;4950508;28;20052;-86
2023/12/20 08:43:04;;;;;;;6.88;3.53;;;;;;;;;;4936754;29;20051;-86
2023/12/20 08:45:35;;;;;;;9.50;3.70;;;;;;;;;;4948937;29;20048;-86
2023/12/20 08:48:05;;;;;;;18.33;4.72;;;;;;;;;;4947102;29;20052;-86
2023/12/20 08:50:38;;;;;;;9.90;3.30;;;;;;;;;;4946349;29;20047;-85
2023/12/20 08:53:10;;;;;;;7.55;4.03;;;;;;;;;;4937650;29;20048;-86
2023/12/20 08:55:41;;;;;;;6.20;3.60;;;;;;;;;;4948209;29;20051;-86
2023/12/20 08:58:11;;;;;;;11.35;4.28;;;;;;;;;;4918151;29;20067;-86
2023/12/20 09:00:42;;;;;;;7.95;4.10;;;;;;;;;;4929767;29;20058;-88
2023/12/20 09:03:13;;;;;;;10.57;4.10;;;;;;;;;;4924026;29;20039;-89
2023/12/20 09:05:43;;;;;;;12.40;4.30;;;;;;;;;;4942672;29;20097;-86
2023/12/20 09:08:14;;;;;;;13.60;5.22;;;;;;;;;;4950479;29;20047;-87
2023/12/20 09:10:46;;;;;;;7.75;3.33;;;;;;;;;;4935193;29;20081;-85
2023/12/20 09:13:16;;;;;;;10.95;4.15;;;;;;;;;;4953285;29;20046;-87
2023/12/20 09:15:48;;;;;;;;;;;;;;;;;;4935230;29;20055;-89
2023/12/20 09:18:19;;;;;;;9.73;3.45;;;;;;;;;;4918771;29;19927;-88
2023/12/20 09:20:50;;;;;;;11.13;3.55;;;;;;;;;;4919739;29;20047;-91
2023/12/20 09:23:20;;;;;;;8.90;3.22;;;;;;;;;;4919193;29;20052;-89
2023/12/20 09:25:50;;;;;;;6.63;3.20;;;;;;;;;;4903868;29;20055;-90
2023/12/20 09:28:25;;;;;;;8.30;2.95;;;;;;;;;;4920171;29;20074;-91
2023/12/20 09:30:57;;;;;;;7.65;3.22;;;;;;;;;;4919855;29;20055;-90
2023/12/20 09:33:28;;;;;;;5.47;3.15;;;;;;;;;;4919959;29;20055;-88
2023/12/20 09:35:58;;;;;;;7.30;3.50;;;;;;;;;;4919711;29;20495;-88
2023/12/20 09:38:29;;;;;;;6.65;2.95;;;;;;;;;;4918440;29;20406;-89
2023/12/20 09:41:00;;;;;;;10.45;3.25;;;;;;;;;;4918736;29;20067;-88
2023/12/20 09:43:32;;;;;;;7.00;2.92;;;;;;;;;;4918819;29;20055;-87
2023/12/20 09:46:10;;;;;;;6.68;2.58;;;;;;;;;;4939584;29;20399;-89
2023/12/20 09:48:43;;;;;;;10.10;3.00;;;;;;;;;;4921936;29;20051;-90
2023/12/20 09:51:15;;;;;;;9.50;2.80;;;;;;;;;;4907569;29;20059;-89
2023/12/20 09:53:47;;;;;;;6.63;2.35;;;;;;;;;;4923032;29;20399;-89
2023/12/20 09:56:17;;;;;;;;;;;;;;;;;;4923123;29;20052;-89
2023/12/20 09:58:47;;;;;;;4.40;1.30;;;;;;;;;;4923290;29;19923;-90
2023/12/20 10:01:19;;;;;;;5.85;1.50;;;;;;;;;;4923264;29;20529;-91
2023/12/20 10:03:52;;;;;;;4.85;1.45;;;;;;;;;;4921909;29;20056;-90
2023/12/20 10:06:22;;;;;;;4.20;1.95;;;;;;;;;;4923964;29;20064;-89
2023/12/20 10:08:53;;;;;;;10.60;1.40;;;;;;;;;;4924267;29;20060;-90
2023/12/20 10:11:24;;;;;;;6.60;1.60;;;;;;;;;;4923331;29;20059;-91
2023/12/20 10:14:03;;;;;;;4.05;1.42;;;;;;;;;;4924122;29;20051;-89
2023/12/20 10:16:34;;;;;;;5.53;1.38;;;;;;;;;;4908391;29;20065;-91
2023/12/20 10:19:04;;;;;;;4.07;1.30;;;;;;;;;;4924360;29;20487;-87
2023/12/20 10:21:35;;;;;;;5.15;1.38;;;;;;;;;;4940455;29;20065;-88
2023/12/20 10:24:06;;;;;;;7.13;1.85;;;;;;;;;;4922377;29;20051;-90
2023/12/20 10:26:37;;;;;;;6.07;1.20;;;;;;;;;;4924190;29;20058;-87
2023/12/20 10:29:08;;;;;;;4.63;1.33;;;;;;;;;;4937059;29;20055;-88
2023/12/20 10:31:39;;;;;;;4.13;1.10;;;;;;;;;;4921639;29;20060;-87
2023/12/20 10:34:09;;;;;;;5.00;1.20;;;;;;;;;;4922616;29;20079;-87
2023/12/20 10:36:39;;;;;;;8.45;1.40;;;;;;;;;;4938048;29;20047;-88
2023/12/20 10:39:12;;;;;;;4.22;1.20;;;;;;;;;;4937533;29;20078;-87
2023/12/20 10:41:43;;;;;;;3.13;1.10;;;;;;;;;;4937492;29;20056;-87
2023/12/20 10:44:17;;;;;;;3.40;1.27;;;;;;;;;;4937136;29;20052;-89
2023/12/20 10:46:51;;;;;;;3.72;1.25;;;;;;;;;;4939299;29;20044;-87
2023/12/20 10:49:22;;;;;;;7.10;1.20;;;;;;;;;;4939247;29;20047;-87
2023/12/20 10:51:59;;;;;;;6.05;1.33;;;;;;;;;;4937728;29;20055;-89
2023/12/20 10:54:30;;;;;;;4.93;1.42;;;;;;;;;;4921883;29;20052;-87
2023/12/20 10:57:04;;;;;;;;;;;;;;;;;;4953043;29;20058;-91
2023/12/20 10:59:37;;;;;;;7.18;1.40;;;;;;;;;;4938585;29;19930;-88
2023/12/20 11:02:08;;;;;;;4.18;1.20;;;;;;;;;;4937898;29;20058;-89
2023/12/20 11:04:47;;;;;;;3.97;1.20;;;;;;;;;;4937173;29;20483;-92
2023/12/20 11:07:35;;;;;;;2.70;0.90;;;;;;;;;;4921676;29;20055;-90
2023/12/20 11:10:29;;;;;;;4.88;1.23;;;;;;;;;;4926584;29;20047;-87
2023/12/20 11:13:10;;;;;;;2.33;1.13;;;;;;;;;;4904854;29;20051;-89
2023/12/20 11:15:42;;;;;;;6.43;1.73;;;;;;;;;;4920869;29;20059;-87
2023/12/20 11:18:15;;;;;;;4.90;1.33;;;;;;;;;;4919957;29;20411;-86
2023/12/20 11:20:46;;;;;;;4.10;1.08;;;;;;;;;;4920929;29;20048;-87
2023/12/20 11:23:17;;;;;;;4.90;1.45;;;;;;;;;;4937398;29;20043;-87
2023/12/20 11:25:58;;;;;;;6.28;1.00;;;;;;;;;;4919409;29;20051;-87
2023/12/20 11:28:29;;;;;;;3.22;0.80;;;;;;;;;;4920076;29;20047;-86
2023/12/20 11:31:02;;;;;;;1.75;1.00;;;;;;;;;;4920545;29;20052;-86
2023/12/20 11:33:38;;;;;;;4.68;1.90;;;;;;;;;;4920582;29;20051;-87
2023/12/20 11:36:20;;;;;;;6.97;1.48;;;;;;;;;;4936856;29;20047;-88
2023/12/20 11:38:58;;;;;;;4.07;1.60;;;;;;;;;;4937154;29;20391;-87
2023/12/20 11:41:28;;;;;;;4.55;0.90;;;;;;;;;;4920200;29;20058;-85
2023/12/20 11:44:01;;;;;;;3.22;1.10;;;;;;;;;;4904430;29;20052;-84
2023/12/20 11:46:33;;;;;;;2.58;1.10;;;;;;;;;;4901303;29;20411;-85
2023/12/20 11:49:03;;;;;;;3.28;1.00;;;;;;;;;;4929884;29;20051;-86
2023/12/20 11:51:33;;;;;;;5.47;1.10;;;;;;;;;;4920351;29;20048;-84
2023/12/20 11:54:05;;;;;;;8.27;1.67;;;;;;;;;;4937157;29;20040;-87
2023/12/20 11:56:40;;;;;;;5.25;1.10;;;;;;;;;;4904088;29;20047;-86
2023/12/20 11:59:11;;;;;;;5.97;1.15;;;;;;;;;;4936336;29;20047;-83
2023/12/20 12:01:52;;;;;;;6.03;1.40;;;;;;;;;;4936765;29;20050;-84
2023/12/20 12:04:23;;;;;;;5.00;1.30;;;;;;;;;;4920196;29;20051;-85
2023/12/20 12:06:55;;;;;;;7.68;1.10;;;;;;;;;;4919104;29;20059;-86
2023/12/20 12:09:25;;;;;;;3.78;1.10;;;;;;;;;;4903314;29;20067;-86
2023/12/20 12:11:55;;;;;;;3.38;1.45;;;;;;;;;;4936510;29;20063;-85
2023/12/20 12:14:26;;;;;;;7.00;1.30;;;;;;;;;;4919324;29;20063;-85
2023/12/20 12:16:57;;;;;;;2.70;0.90;;;;;;;;;;4919322;29;20059;-85
2023/12/20 12:19:29;;;;;;;4.63;1.48;;;;;;;;;;4936496;29;20417;-84
2023/12/20 12:22:13;;;;;;;4.15;0.98;;;;;;;;;;4936150;29;20059;-86
2023/12/20 12:24:45;;;;;;;2.88;1.10;;;;;;;;;;4918956;29;20502;-85
2023/12/20 12:27:19;;;;;;;5.78;1.23;;;;;;;;;;4919150;29;20052;-84
2023/12/20 12:30:07;;;;;;;3.65;1.63;;;;;;;;;;4919379;29;20059;-83
2023/12/20 12:32:38;;;;;;;7.15;1.77;;;;;;;;;;4935643;29;20051;-86
2023/12/20 12:35:10;;;;;;;5.35;1.60;;;;;;;;;;4919276;29;20051;-83
2023/12/20 12:37:41;;;;;;;2.90;1.17;;;;;;;;;;4918804;29;20522;-82
2023/12/20 12:40:16;;;;;;;5.93;2.10;;;;;;;;;;4919554;29;20048;-84
2023/12/20 12:42:47;;;;;;;3.35;1.20;;;;;;;;;;4918713;29;20056;-84
2023/12/20 12:45:18;;;;;;;7.80;1.30;;;;;;;;;;4935634;29;20050;-84
2023/12/20 12:47:48;;;;;;;4.90;1.52;;;;;;;;;;4935575;29;20066;-84
2023/12/20 12:50:19;;;;;;;6.43;1.17;;;;;;;;;;4918639;29;20537;-85
2023/12/20 12:52:50;;;;;;;3.60;1.00;;;;;;;;;;4918508;29;20059;-84
2023/12/20 12:55:24;;;;;;;5.00;1.23;;;;;;;;;;4935622;29;20047;-86
2023/12/20 12:57:56;;;;;;;4.75;0.98;;;;;;;;;;4918606;29;20056;-83
2023/12/20 13:00:26;;;;;;;5.32;0.90;;;;;;;;;;4918910;29;20051;-85
2023/12/20 13:02:57;;;;;;;2.85;1.15;;;;;;;;;;4918458;29;20052;-84
2023/12/20 13:05:28;;;;;;;4.93;1.52;;;;;;;;;;4935570;29;20054;-84
2023/12/20 13:07:59;;;;;;;2.58;0.98;;;;;;;;;;4917618;29;20052;-83
2023/12/20 13:10:28;;;;;;;3.50;0.80;;;;;;;;;;4919143;29;20052;-83
2023/12/20 13:12:59;;;;;;;4.03;1.35;;;;;;;;;;4918134;29;20059;-83
2023/12/20 13:15:30;;;;;;;3.97;0.90;;;;;;;;;;4919056;29;20059;-82
2023/12/20 13:18:01;;;;;;;2.67;0.75;;;;;;;;;;4935553;29;20515;-85
2023/12/20 13:20:31;;;;;;;2.17;0.88;;;;;;;;;;4917177;29;20495;-81
2023/12/20 13:23:00;;;;;;;1.85;0.65;;;;;;;;;;4918876;29;20059;-83
2023/12/20 13:25:31;;;;;;;5.10;1.00;;;;;;;;;;4936976;29;20414;-83
2023/12/20 13:28:02;;;;;;;2.17;0.85;;;;;;;;;;4935301;29;20518;-82
2023/12/20 13:30:34;;;;;;;3.22;0.85;;;;;;;;;;4920069;29;20058;-84
2023/12/20 13:33:05;;;;;;;5.68;1.23;;;;;;;;;;4936668;29;20051;-85
2023/12/20 13:35:35;;;;;;;3.38;0.98;;;;;;;;;;4935567;29;20047;-82
2023/12/20 13:38:05;;;;;;;3.33;0.90;;;;;;;;;;4935399;29;20052;-83
2023/12/20 13:40:35;;;;;;;4.25;1.33;;;;;;;;;;4917237;29;20161;-81
2023/12/20 13:43:05;;;;;;;3.03;0.73;;;;;;;;;;4918937;29;20048;-82
2023/12/20 13:45:37;;;;;;;2.67;0.77;;;;;;;;;;4935320;29;20052;-83
2023/12/20 13:48:07;;;;;;;4.35;1.02;;;;;;;;;;4918435;29;20052;-82
2023/12/20 13:50:37;;;;;;;4.22;1.10;;;;;;;;;;4935230;29;20044;-83
2023/12/20 13:53:07;;;;;;;2.85;0.68;;;;;;;;;;4935024;29;20051;-83
2023/12/20 13:55:38;;;;;;;2.42;1.00;;;;;;;;;;4934942;29;20054;-85
2023/12/20 13:58:12;;;;;;;3.80;0.90;;;;;;;;;;4918708;29;20060;-84
2023/12/20 14:00:42;;;;;;;4.15;0.75;;;;;;;;;;4935306;29;20372;-84
2023/12/20 14:03:12;;;;;;;2.13;0.70;;;;;;;;;;4935757;29;20048;-84
2023/12/20 14:05:43;;;;;;;1.83;0.68;;;;;;;;;;4935334;29;20058;-83
2023/12/20 14:08:13;;;;;;;1.38;0.80;;;;;;;;;;4914059;29;20059;-83
2023/12/20 14:10:43;;;;;;;2.97;0.85;;;;;;;;;;4917925;29;20052;-84
2023/12/20 14:13:13;;;;;;;3.33;1.00;;;;;;;;;;4934674;29;20183;-83
2023/12/20 14:15:44;;;;;;;4.45;1.00;;;;;;;;;;4934620;29;20056;-86
2023/12/20 14:18:14;;;;;;;1.50;0.63;;;;;;;;;;4916071;29;20051;-84
2023/12/20 14:20:47;;;;;;;2.50;0.93;;;;;;;;;;4898967;29;20068;-86
2023/12/20 14:23:18;;;;;;;2.53;0.88;;;;;;;;;;4914182;29;20052;-84
2023/12/20 14:25:50;;;;;;;1.55;0.70;;;;;;;;;;4915798;29;20086;-85
2023/12/20 14:28:21;;;;;;;1.67;0.70;;;;;;;;;;4916898;29;20430;-83
2023/12/20 14:30:51;;;;;;;2.45;1.20;;;;;;;;;;4903079;29;20059;-84
2023/12/20 14:33:22;;;;;;;2.45;1.20;;;;;;;;;;4937825;29;20044;-83
2023/12/20 14:35:53;;;;;;;4.22;1.67;;;;;;;;;;4906240;29;20060;-87
2023/12/20 14:38:23;;;;;;;2.20;1.00;;;;;;;;;;4938323;29;20483;-82
2023/12/20 14:40:53;;;;;;;3.58;1.15;;;;;;;;;;4904272;29;20055;-82
2023/12/20 14:43:26;;;;;;;3.15;0.80;;;;;;;;;;4937447;29;20066;-83
2023/12/20 14:45:56;;;;;;;2.08;1.08;;;;;;;;;;4938078;29;20043;-85
2023/12/20 14:48:29;;;;;;;3.92;0.93;;;;;;;;;;4921407;29;20125;-84
2023/12/20 14:51:00;;;;;;;2.05;1.00;;;;;;;;;;4921846;29;20047;-83
2023/12/20 14:53:30;;;;;;;4.38;0.95;;;;;;;;;;4920015;29;20058;-82
2023/12/20 14:56:02;;;;;;;3.50;1.02;;;;;;;;;;4919778;29;20056;-82
2023/12/20 14:58:33;;;;;;;3.42;1.23;;;;;;;;;;4937810;29;20059;-84
2023/12/20 15:01:08;;;;;;;1.65;0.90;;;;;;;;;;4920514;29;20059;-85
2023/12/20 15:03:39;;;;;;;2.95;0.90;;;;;;;;;;4920314;29;20055;-81
2023/12/20 15:06:11;;;;;;;2.35;1.33;;;;;;;;;;4904966;29;20403;-82
2023/12/20 15:08:42;;;;;;;2.08;0.80;;;;;;;;;;4937104;29;20060;-82
2023/12/20 15:11:13;;;;;;;2.80;1.10;;;;;;;;;;4937742;29;20062;-83
2023/12/20 15:13:47;;;;;;;3.00;0.88;;;;;;;;;;4920298;29;20055;-83
2023/12/20 15:16:17;;;;;;;6.78;1.50;;;;;;;;;;4920327;29;20048;-85
2023/12/20 15:18:47;;;;;;;2.13;1.10;;;;;;;;;;4920093;29;20075;-82
2023/12/20 15:21:18;;;;;;;4.35;0.88;;;;;;;;;;4919865;29;20048;-82
2023/12/20 15:23:55;;;;;;;4.15;0.93;;;;;;;;;;4905028;29;20052;-85
2023/12/20 15:26:28;;;;;;;1.85;0.90;;;;;;;;;;4936854;29;20044;-85
2023/12/20 15:29:03;;;;;;;4.25;0.95;;;;;;;;;;4937154;29;20044;-82
2023/12/20 15:31:34;;;;;;;3.03;1.05;;;;;;;;;;4936721;29;20064;-82